Time;durP1;ratioP1;P1;durP2;ratioP2;P2;SDS_P1;SDS_P2;PMS_P1;PMS_P2;Temp;Humidity;BMP_temperature;BMP_pressure;BME280_temperature;BME280_humidity;BME280_pressure;Samples;Min_cycle;Max_cycle;Signal;HPM_P1;HPM_P2
2022/04/01 00:00:47;;;;;;;5.07;3.30;;;4.60;99.90;;;;;;5072335;28;20237;-79
2022/04/01 00:03:14;;;;;;;6.63;3.67;;;4.60;99.90;;;;;;5072137;28;20203;-80
2022/04/01 00:05:41;;;;;;;6.00;3.80;;;4.50;99.90;;;;;;5072112;28;20294;-79
2022/04/01 00:08:10;;;;;;;5.83;3.50;;;4.50;99.90;;;;;;5071930;28;20302;-81
2022/04/01 00:10:36;;;;;;;6.23;3.77;;;4.50;99.90;;;;;;5071684;28;20199;-79
2022/04/01 00:13:03;;;;;;;6.73;3.93;;;4.40;99.90;;;;;;5072072;28;20660;-79
2022/04/01 00:15:30;;;;;;;5.77;3.90;;;4.40;99.90;;;;;;5072432;28;20209;-79
2022/04/01 00:17:57;;;;;;;5.07;3.20;;;4.30;99.90;;;;;;5071116;28;20699;-78
2022/04/01 00:20:25;;;;;;;5.90;4.10;;;4.40;99.90;;;;;;5073834;28;20233;-79
2022/04/01 00:22:53;;;;;;;6.13;4.13;;;4.40;99.90;;;;;;5076549;28;20248;-79
2022/04/01 00:25:22;;;;;;;6.43;4.10;;;4.50;99.90;;;;;;5075934;28;20206;-79
2022/04/01 00:27:50;;;;;;;8.87;4.90;;;4.60;99.90;;;;;;5075662;28;20257;-79
2022/04/01 00:30:18;;;;;;;7.33;4.53;;;4.70;99.90;;;;;;5076030;28;20207;-79
2022/04/01 00:32:44;;;;;;;7.80;4.93;;;4.30;99.90;;;;;;5076071;28;20213;-79
2022/04/01 00:35:11;;;;;;;6.33;4.50;;;4.30;99.90;;;;;;5075903;28;20207;-79
2022/04/01 00:37:40;;;;;;;8.00;5.10;;;4.20;99.90;;;;;;5074923;28;20203;-78
2022/04/01 00:40:09;;;;;;;8.53;5.07;;;4.20;99.90;;;;;;5075908;28;20688;-79
2022/04/01 00:42:38;;;;;;;5.60;4.03;;;4.10;99.90;;;;;;5075893;28;20253;-79
2022/04/01 00:45:06;;;;;;;6.27;4.03;;;4.00;99.90;;;;;;5075800;28;20214;-79
2022/04/01 00:47:33;;;;;;;6.23;4.63;;;3.80;99.90;;;;;;5075944;28;20199;-79
2022/04/01 00:49:59;;;;;;;6.87;4.40;;;3.90;99.90;;;;;;5075324;28;20310;-80
2022/04/01 00:52:26;;;;;;;5.77;3.90;;;4.00;99.90;;;;;;5075337;28;20199;-80
2022/04/01 00:54:53;;;;;;;6.00;3.90;;;3.90;99.90;;;;;;5075118;28;20199;-80
2022/04/01 00:57:21;;;;;;;5.73;4.17;;;3.90;99.90;;;;;;5075321;28;20207;-79
2022/04/01 00:59:50;;;;;;;5.50;3.87;;;3.80;99.90;;;;;;5075382;28;20227;-80
2022/04/01 01:02:17;;;;;;;5.47;4.03;;;3.90;99.90;;;;;;5075342;28;20618;-79
2022/04/01 01:04:45;;;;;;;5.30;3.67;;;4.00;99.90;;;;;;5075393;28;20656;-80
2022/04/01 01:07:13;;;;;;;5.13;4.07;;;4.00;99.90;;;;;;5075452;28;20209;-77
2022/04/01 01:09:40;;;;;;;4.90;3.47;;;4.00;99.90;;;;;;5075288;28;20242;-80
2022/04/01 01:12:07;;;;;;;6.10;3.57;;;3.90;99.90;;;;;;5074693;28;20234;-79
2022/04/01 01:14:36;;;;;;;6.97;4.37;;;3.60;99.90;;;;;;5075160;28;20207;-80
2022/04/01 01:17:07;;;;;;;6.57;4.17;;;3.50;99.90;;;;;;5074773;28;20260;-79
2022/04/01 01:19:34;;;;;;;6.37;3.80;;;3.40;99.90;;;;;;5073880;28;20560;-81
2022/04/01 01:22:01;;;;;;;5.37;3.80;;;3.40;99.90;;;;;;5075083;28;20231;-82
2022/04/01 01:24:31;;;;;;;7.37;4.50;;;3.30;99.90;;;;;;5075262;28;20199;-81
2022/04/01 01:26:59;;;;;;;6.03;4.13;;;3.20;99.90;;;;;;5074644;28;20225;-79
2022/04/01 01:29:27;;;;;;;3.83;3.03;;;3.10;99.90;;;;;;5074835;28;20223;-80
2022/04/01 01:31:55;;;;;;;7.40;4.43;;;3.20;99.90;;;;;;5074408;28;20200;-78
2022/04/01 01:34:22;;;;;;;5.73;3.90;;;3.20;99.90;;;;;;5074294;28;20603;-79
2022/04/01 01:36:50;;;;;;;5.53;4.47;;;3.10;99.90;;;;;;5074575;28;20216;-80
2022/04/01 01:39:17;;;;;;;6.20;4.07;;;3.00;99.90;;;;;;5074702;28;20259;-81
2022/04/01 01:41:46;;;;;;;7.13;4.80;;;2.90;99.90;;;;;;5074676;28;20263;-80
2022/04/01 01:44:13;;;;;;;6.20;4.10;;;2.80;99.90;;;;;;5074742;28;20203;-81
2022/04/01 01:46:40;;;;;;;6.87;4.23;;;2.80;99.90;;;;;;5074569;28;20199;-80
2022/04/01 01:49:07;;;;;;;7.30;4.37;;;2.70;99.90;;;;;;5074446;28;20292;-81
2022/04/01 01:57:05;;;;;;;6.10;4.10;;;2.90;99.90;;;;;;5074152;28;20333;-79
2022/04/01 01:59:33;;;;;;;5.27;2.90;;;2.90;99.90;;;;;;5074386;28;20223;-76
2022/04/01 02:02:03;;;;;;;6.33;4.00;;;2.70;99.90;;;;;;5074220;28;20268;-80
2022/04/01 02:04:30;;;;;;;5.50;3.70;;;2.60;99.90;;;;;;5074577;28;20204;-80
2022/04/01 02:06:57;;;;;;;4.50;3.37;;;2.50;99.90;;;;;;5073930;28;20660;-80
2022/04/01 02:09:24;;;;;;;6.43;4.30;;;2.70;99.90;;;;;;5073374;28;20227;-80
2022/04/01 02:11:52;;;;;;;5.07;3.60;;;2.70;99.90;;;;;;5074082;28;20234;-80
2022/04/01 02:14:20;;;;;;;3.80;2.80;;;2.70;99.90;;;;;;5074291;28;20218;-77
2022/04/01 02:16:47;;;;;;;3.97;3.27;;;2.70;99.90;;;;;;5074315;28;20207;-79
2022/04/01 02:19:20;;;;;;;3.77;3.10;;;2.60;99.90;;;;;;5074156;28;20225;-81
2022/04/01 02:21:48;;;;;;;4.83;3.37;;;2.60;99.90;;;;;;5074045;28;20231;-81
2022/04/01 02:24:17;;;;;;;4.87;2.90;;;2.70;99.90;;;;;;5073719;28;20565;-83
2022/04/01 02:26:44;;;;;;;5.33;3.57;;;2.50;99.90;;;;;;5073887;28;20199;-82
2022/04/01 02:29:11;;;;;;;3.87;3.23;;;2.50;99.90;;;;;;5073546;28;20226;-81
2022/04/01 02:31:39;;;;;;;4.40;2.73;;;2.60;99.90;;;;;;5073666;28;20200;-81
2022/04/01 02:34:06;;;;;;;3.37;2.40;;;2.70;99.90;;;;;;5073546;28;20682;-79
2022/04/01 02:36:33;;;;;;;5.43;3.27;;;2.70;99.90;;;;;;5073198;28;20207;-80
2022/04/01 02:39:01;;;;;;;4.60;3.10;;;2.60;99.90;;;;;;5073595;28;20255;-81
2022/04/01 02:41:29;;;;;;;2.60;2.30;;;2.60;99.90;;;;;;5073187;28;20223;-81
2022/04/01 02:44:08;;;;;;;3.67;2.17;;;2.50;99.90;;;;;;5073080;28;20297;-81
2022/04/01 02:46:35;;;;;;;2.33;1.97;;;2.50;99.90;;;;;;5073070;28;20202;-80
2022/04/01 02:49:06;;;;;;;3.53;2.43;;;2.50;99.90;;;;;;5073269;28;20277;-80
2022/04/01 02:51:34;;;;;;;3.17;2.20;;;2.40;99.90;;;;;;5073599;28;20199;-79
2022/04/01 02:54:03;;;;;;;2.63;1.70;;;2.40;99.90;;;;;;5073690;28;20203;-80
2022/04/01 02:56:30;;;;;;;6.03;1.90;;;2.40;99.90;;;;;;5073213;28;20221;-82
2022/04/01 02:58:57;;;;;;;3.13;2.10;;;2.40;99.90;;;;;;5072863;28;20230;-80
2022/04/01 03:01:24;;;;;;;3.03;2.10;;;2.40;99.90;;;;;;5073022;28;20317;-81
2022/04/01 03:04:00;;;;;;;2.50;2.13;;;2.40;99.90;;;;;;5073556;28;20209;-78
2022/04/01 03:06:29;;;;;;;3.37;2.20;;;2.40;99.90;;;;;;5073863;28;20645;-78
2022/04/01 03:08:56;;;;;;;2.00;1.47;;;2.30;99.90;;;;;;5073316;28;20254;-77
2022/04/01 03:11:23;;;;;;;3.20;1.90;;;2.20;99.90;;;;;;5073299;28;20248;-76
2022/04/01 03:13:49;;;;;;;1.90;1.70;;;2.10;99.90;;;;;;5072812;28;20290;-77
2022/04/01 03:16:16;;;;;;;2.63;1.97;;;2.00;99.90;;;;;;5073330;28;20316;-78
2022/04/01 03:18:43;;;;;;;2.80;1.77;;;2.00;99.90;;;;;;5072668;28;20314;-78
2022/04/01 03:21:11;;;;;;;3.17;1.90;;;1.90;99.90;;;;;;5072865;28;20257;-80
2022/04/01 03:23:43;;;;;;;1.90;1.47;;;1.90;99.90;;;;;;5072940;28;20208;-80
2022/04/01 03:26:11;;;;;;;2.87;1.90;;;1.90;99.90;;;;;;5072593;28;20211;-80
2022/04/01 03:28:39;;;;;;;2.47;1.60;;;1.80;99.90;;;;;;5096130;28;20213;-79
2022/04/01 03:31:06;;;;;;;2.60;1.70;;;1.90;99.90;;;;;;5113376;28;20202;-79
2022/04/01 03:33:34;;;;;;;3.23;1.47;;;2.00;99.90;;;;;;5113242;28;20492;-80
2022/04/01 03:36:01;;;;;;;2.23;1.60;;;1.90;99.90;;;;;;5113135;28;20212;-80
2022/04/01 03:38:28;;;;;;;2.30;1.87;;;1.90;99.90;;;;;;5113711;28;20217;-79
2022/04/01 03:40:57;;;;;;;4.00;1.80;;;1.90;99.90;;;;;;5113154;28;20201;-79
2022/04/01 03:43:25;;;;;;;4.07;2.43;;;2.00;99.90;;;;;;5112946;28;20562;-79
2022/04/01 03:45:54;;;;;;;2.63;1.70;;;2.00;99.90;;;;;;5113207;28;20219;-80
2022/04/01 03:48:28;;;;;;;2.50;1.80;;;1.90;99.90;;;;;;5113284;28;20232;-80
2022/04/01 03:50:57;;;;;;;2.47;1.70;;;1.80;99.90;;;;;;5112834;28;20201;-79
2022/04/01 03:53:26;;;;;;;2.87;2.23;;;1.70;99.90;;;;;;5083451;28;20537;-77
2022/04/01 03:55:56;;;;;;;2.47;1.87;;;1.70;99.90;;;;;;5072220;28;20206;-78
2022/04/01 03:58:28;;;;;;;2.07;1.60;;;1.80;99.90;;;;;;5076121;28;20219;-80
2022/04/01 04:00:56;;;;;;;4.77;1.80;;;1.80;99.90;;;;;;5072725;28;20272;-78
2022/04/01 04:03:23;;;;;;;1.53;1.20;;;1.80;99.90;;;;;;5072363;28;20209;-79
2022/04/01 04:05:51;;;;;;;2.60;1.80;;;1.90;99.90;;;;;;5072612;28;20207;-79
2022/04/01 04:08:20;;;;;;;2.87;2.00;;;1.90;99.90;;;;;;5071915;28;20640;-78
2022/04/01 04:10:48;;;;;;;3.17;1.90;;;1.90;99.90;;;;;;5072514;28;20203;-79
2022/04/01 04:13:17;;;;;;;2.40;2.03;;;1.90;99.90;;;;;;5072127;28;20207;-79
2022/04/01 04:15:51;;;;;;;2.87;2.17;;;1.90;99.90;;;;;;5072194;28;20209;-78
2022/04/01 04:18:20;;;;;;;3.67;2.27;;;1.90;99.90;;;;;;5072018;28;20238;-78
2022/04/01 04:21:11;;;;;;;2.77;1.77;;;1.90;99.90;;;;;;5072125;28;20651;-78
2022/04/01 04:23:44;;;;;;;2.50;1.97;;;1.90;99.90;;;;;;5072412;28;20204;-78
2022/04/01 04:26:15;;;;;;;2.77;1.90;;;1.90;99.90;;;;;;5071998;28;20215;-78
2022/04/01 04:28:49;;;;;;;4.07;2.53;;;2.00;99.90;;;;;;5071656;28;20256;-78
2022/04/01 04:31:22;;;;;;;2.40;1.90;;;2.00;99.90;;;;;;5088301;28;20205;-77
2022/04/01 04:33:50;;;;;;;2.50;1.90;;;2.00;99.90;;;;;;5093644;28;20194;-78
2022/04/01 04:36:19;;;;;;;2.03;1.77;;;2.00;99.90;;;;;;5095054;28;20217;-78
2022/04/01 04:38:49;;;;;;;2.20;1.90;;;2.00;99.90;;;;;;5097723;28;20217;-78
2022/04/01 04:41:19;;;;;;;2.40;1.77;;;2.00;99.90;;;;;;5099007;28;20205;-78
2022/04/01 04:43:51;;;;;;;2.73;1.83;;;2.00;99.90;;;;;;5101518;28;20717;-78
2022/04/01 04:46:24;;;;;;;3.73;2.03;;;1.80;99.90;;;;;;5107882;28;20208;-79
2022/04/01 04:48:51;;;;;;;2.70;1.83;;;1.70;99.90;;;;;;5110431;28;20232;-78
2022/04/01 04:51:24;;;;;;;2.37;1.83;;;1.70;99.90;;;;;;5098020;28;20203;-78
2022/04/01 04:53:51;;;;;;;2.17;1.53;;;1.70;99.90;;;;;;5091684;28;20194;-78
2022/04/01 04:56:19;;;;;;;3.80;2.33;;;1.50;99.90;;;;;;5092200;28;20731;-79
2022/04/01 04:58:48;;;;;;;2.80;2.33;;;1.50;99.90;;;;;;5092031;28;20219;-79
2022/04/01 05:01:25;;;;;;;4.23;2.00;;;1.60;99.90;;;;;;5091477;28;20214;-78
2022/04/01 05:04:03;;;;;;;2.90;1.80;;;1.60;99.90;;;;;;5092387;28;20617;-79
2022/04/01 05:06:39;;;;;;;2.90;2.20;;;1.60;99.90;;;;;;5075304;28;20214;-79
2022/04/01 05:09:15;;;;;;;3.73;2.23;;;1.50;99.90;;;;;;5075262;28;20237;-79
2022/04/01 05:11:48;;;;;;;2.03;1.73;;;1.50;99.90;;;;;;5075554;28;20711;-80
2022/04/01 05:14:38;;;;;;;2.67;2.10;;;1.60;99.90;;;;;;5075881;28;20203;-78
2022/04/01 05:17:08;;;;;;;3.30;2.27;;;1.40;99.90;;;;;;5075614;28;20598;-79
2022/04/01 05:19:37;;;;;;;3.50;1.87;;;1.40;99.90;;;;;;5075481;28;20223;-79
2022/04/01 05:22:05;;;;;;;2.77;2.27;;;1.40;99.90;;;;;;5075310;28;20715;-78
2022/04/01 05:24:48;;;;;;;3.03;2.43;;;1.50;99.90;;;;;;5075634;28;20226;-78
2022/04/01 05:27:22;;;;;;;3.37;2.63;;;1.40;99.90;;;;;;5075320;28;20207;-79
2022/04/01 05:29:58;;;;;;;3.37;2.53;;;1.40;99.90;;;;;;5075479;28;20219;-78
2022/04/01 05:32:31;;;;;;;2.80;2.00;;;1.30;99.90;;;;;;5075399;28;20239;-78
2022/04/01 05:35:01;;;;;;;3.80;2.53;;;1.30;99.90;;;;;;5075945;28;20515;-78
2022/04/01 05:37:29;;;;;;;4.67;2.33;;;1.30;99.90;;;;;;5075868;28;20676;-77
2022/04/01 05:39:56;;;;;;;3.93;2.30;;;1.50;99.90;;;;;;5074756;28;20224;-78
2022/04/01 05:42:27;;;;;;;3.30;2.50;;;1.30;99.90;;;;;;5074892;28;20238;-78
2022/04/01 05:44:56;;;;;;;3.70;2.10;;;1.40;99.90;;;;;;5075392;28;20203;-78
2022/04/01 05:47:24;;;;;;;3.13;2.27;;;1.30;99.90;;;;;;5075139;28;20191;-78
2022/04/01 05:49:56;;;;;;;4.27;2.90;;;1.30;99.90;;;;;;5075016;28;20219;-77
2022/04/01 05:52:23;;;;;;;4.23;2.53;;;1.30;99.90;;;;;;5074915;28;20654;-78
2022/04/01 05:54:51;;;;;;;3.17;2.43;;;1.20;99.90;;;;;;5075145;28;20613;-77
2022/04/01 05:57:20;;;;;;;4.80;3.03;;;1.20;99.90;;;;;;5083979;28;20203;-78
2022/04/01 05:59:48;;;;;;;4.40;2.50;;;1.20;99.90;;;;;;5093729;28;20773;-77
2022/04/01 06:02:48;;;;;;;4.63;2.17;;;1.20;99.90;;;;;;5094545;28;20237;-78
2022/04/01 06:05:23;;;;;;;1.70;1.33;;;1.20;99.90;;;;;;5074603;28;20207;-78
2022/04/01 06:08:02;;;;;;;4.67;2.53;;;1.20;99.90;;;;;;5074419;28;20207;-78
2022/04/01 06:10:40;;;;;;;5.60;2.80;;;1.30;99.90;;;;;;5074498;28;20210;-78
2022/04/01 06:13:16;;;;;;;3.20;2.30;;;1.40;99.90;;;;;;5074494;28;20203;-78
2022/04/01 06:16:00;;;;;;;4.37;3.20;;;1.40;99.90;;;;;;5074327;28;20287;-78
2022/04/01 06:18:44;;;;;;;3.63;2.43;;;1.30;99.90;;;;;;5074508;28;20588;-78
2022/04/01 06:21:15;;;;;;;3.00;2.03;;;1.20;99.90;;;;;;5074676;28;20199;-78
2022/04/01 06:23:57;;;;;;;3.10;2.27;;;1.20;99.90;;;;;;5074237;28;20227;-77
2022/04/01 06:26:28;;;;;;;5.07;2.70;;;1.20;99.90;;;;;;5074900;28;20214;-77
2022/04/01 06:29:01;;;;;;;3.80;2.47;;;1.20;99.90;;;;;;5074460;28;20227;-76
2022/04/01 06:31:31;;;;;;;4.50;2.47;;;1.20;99.90;;;;;;5074399;28;20214;-77
2022/04/01 06:34:04;;;;;;;4.23;2.53;;;1.20;99.90;;;;;;5074093;28;20545;-76
2022/04/01 06:36:38;;;;;;;4.07;2.70;;;1.20;99.90;;;;;;5074086;28;20203;-77
2022/04/01 06:39:06;;;;;;;4.60;2.63;;;1.10;99.90;;;;;;5073999;28;20695;-76
2022/04/01 06:41:41;;;;;;;4.00;2.73;;;1.00;99.90;;;;;;5073956;28;20213;-77
2022/04/01 06:44:08;;;;;;;4.33;2.97;;;1.10;99.90;;;;;;5073930;28;20203;-76
2022/04/01 06:46:36;;;;;;;4.23;2.63;;;1.00;99.90;;;;;;5073657;28;20630;-77
2022/04/01 06:49:08;;;;;;;3.10;2.50;;;1.00;99.90;;;;;;5073998;28;20227;-77
2022/04/01 06:51:36;;;;;;;3.97;2.87;;;1.00;99.90;;;;;;5074098;28;20576;-77
2022/04/01 06:54:03;;;;;;;4.27;2.67;;;1.00;99.90;;;;;;5075892;28;20691;-75
2022/04/01 06:56:30;;;;;;;3.73;2.73;;;1.10;99.90;;;;;;5074278;28;20203;-76
2022/04/01 06:58:57;;;;;;;5.20;2.93;;;1.10;99.90;;;;;;5074234;28;20561;-76
2022/04/01 07:01:25;;;;;;;5.10;3.40;;;1.10;99.90;;;;;;5073971;28;20211;-75
2022/04/01 07:03:52;;;;;;;3.73;2.53;;;1.20;99.90;;;;;;5073650;28;20231;-74
2022/04/01 07:06:22;;;;;;;5.30;3.60;;;1.20;99.90;;;;;;5073902;28;20214;-75
2022/04/01 07:08:49;;;;;;;3.60;2.60;;;1.10;99.90;;;;;;5073653;28;20241;-75
2022/04/01 07:11:15;;;;;;;5.67;3.60;;;1.10;99.90;;;;;;5074009;28;20298;-75
2022/04/01 07:13:42;;;;;;;4.50;3.07;;;1.00;99.90;;;;;;5073737;28;20656;-75
2022/04/01 07:16:10;;;;;;;3.63;2.83;;;1.00;99.90;;;;;;5073888;28;20209;-75
2022/04/01 07:18:38;;;;;;;4.83;3.47;;;1.00;99.90;;;;;;5074729;28;20715;-78
2022/04/01 07:21:05;;;;;;;4.20;2.33;;;1.00;99.90;;;;;;5090981;28;20255;-79
2022/04/01 07:23:33;;;;;;;7.07;3.77;;;1.00;99.90;;;;;;5093424;28;20258;-79
2022/04/01 07:26:00;;;;;;;4.20;2.87;;;1.00;99.90;;;;;;5075111;28;20294;-78
2022/04/01 07:28:27;;;;;;;4.80;2.60;;;1.10;99.90;;;;;;5072281;28;20225;-80
2022/04/01 07:30:55;;;;;;;4.63;2.97;;;1.10;99.90;;;;;;5073272;28;20625;-80
2022/04/01 07:33:22;;;;;;;4.80;3.17;;;1.20;99.90;;;;;;5073110;28;20249;-80
2022/04/01 07:35:49;;;;;;;5.33;3.70;;;1.10;99.90;;;;;;5072984;28;20210;-80
2022/04/01 07:38:16;;;;;;;5.10;3.33;;;1.10;99.90;;;;;;5087071;28;20272;-79
2022/04/01 07:40:44;;;;;;;6.53;3.60;;;1.10;99.90;;;;;;5072730;28;20211;-79
2022/04/01 07:43:11;;;;;;;7.37;4.07;;;1.20;99.90;;;;;;5072787;28;20704;-79
2022/04/01 07:45:38;;;;;;;4.47;2.93;;;1.30;99.90;;;;;;5072740;28;20205;-78
2022/04/01 07:48:07;;;;;;;7.83;3.50;;;1.30;99.90;;;;;;5072196;28;20223;-78
2022/04/01 07:50:34;;;;;;;7.20;4.40;;;1.30;99.90;;;;;;5072725;28;20286;-79
2022/04/01 07:53:03;;;;;;;5.60;3.70;;;1.20;99.90;;;;;;5071867;28;20203;-81
2022/04/01 07:55:30;;;;;;;5.93;3.10;;;1.20;99.90;;;;;;5072344;28;20206;-78
2022/04/01 07:57:58;;;;;;;5.40;3.70;;;1.20;99.90;;;;;;5072880;28;20203;-80
2022/04/01 08:00:25;;;;;;;6.73;3.60;;;1.20;99.90;;;;;;5072641;28;20270;-80
2022/04/01 08:02:54;;;;;;;7.13;3.50;;;1.30;99.90;;;;;;5073009;28;20313;-81
2022/04/01 08:05:21;;;;;;;5.83;3.60;;;1.20;99.90;;;;;;5073324;28;20199;-80
2022/04/01 08:07:48;;;;;;;4.97;3.40;;;1.20;99.90;;;;;;5072360;28;20211;-80
2022/04/01 08:10:15;;;;;;;5.43;2.77;;;1.10;99.90;;;;;;5072459;28;20624;-83
2022/04/01 08:12:43;;;;;;;8.80;4.10;;;1.10;99.90;;;;;;5073026;28;20210;-81
2022/04/01 08:15:13;;;;;;;4.83;3.27;;;1.10;99.90;;;;;;5083121;28;20190;-83
2022/04/01 08:17:40;;;;;;;5.90;3.47;;;1.10;99.90;;;;;;5081781;28;20213;-70
2022/04/01 08:20:08;;;;;;;11.83;4.17;;;1.10;99.90;;;;;;5077620;28;20199;-70
2022/04/01 08:22:35;;;;;;;4.70;3.10;;;1.10;99.90;;;;;;5075939;28;20318;-76
2022/04/01 08:25:01;;;;;;;4.17;2.90;;;1.10;99.90;;;;;;5084801;28;20264;-73
2022/04/01 08:27:28;;;;;;;5.73;3.40;;;1.20;99.90;;;;;;5090880;28;20202;-76
2022/04/01 08:29:59;;;;;;;4.30;2.93;;;1.20;99.90;;;;;;5076550;28;20657;-72
2022/04/01 08:32:29;;;;;;;9.67;4.30;;;1.20;99.90;;;;;;5083548;28;20203;-72
2022/04/01 08:34:56;;;;;;;7.00;3.37;;;1.10;99.90;;;;;;5071149;28;20203;-72
2022/04/01 08:37:23;;;;;;;6.40;3.53;;;1.20;99.90;;;;;;5070830;28;20218;-72
2022/04/01 08:39:50;;;;;;;6.43;3.23;;;1.30;99.90;;;;;;5071336;28;20276;-73
2022/04/01 08:42:16;;;;;;;3.73;2.20;;;1.30;99.90;;;;;;5079333;28;20594;-72
2022/04/01 08:44:46;;;;;;;3.63;2.53;;;1.30;99.90;;;;;;5084228;28;20199;-74
2022/04/01 08:47:13;;;;;;;3.90;2.10;;;1.30;99.90;;;;;;5074415;28;20211;-70
2022/04/01 08:49:42;;;;;;;6.07;3.20;;;1.20;99.90;;;;;;5075409;28;20219;-73
2022/04/01 08:52:09;;;;;;;7.10;3.70;;;1.20;99.90;;;;;;5074720;28;20214;-72
2022/04/01 08:54:36;;;;;;;5.33;2.97;;;1.10;99.90;;;;;;5094718;28;20216;-71
2022/04/01 08:57:04;;;;;;;4.10;3.07;;;1.10;99.90;;;;;;5093456;28;20271;-72
2022/04/01 08:59:32;;;;;;;5.83;3.30;;;1.10;99.90;;;;;;5094656;28;20227;-76
2022/04/01 09:02:04;;;;;;;5.37;2.83;;;1.20;99.90;;;;;;5094848;28;20289;-69
2022/04/01 09:04:31;;;;;;;4.47;2.97;;;1.30;99.90;;;;;;5094528;28;20334;-74
2022/04/01 09:07:10;;;;;;;5.00;2.97;;;1.40;99.90;;;;;;5094201;28;20198;-72
2022/04/01 09:09:37;;;;;;;6.73;2.63;;;1.40;99.90;;;;;;5080950;28;20227;-74
2022/04/01 09:12:09;;;;;;;3.83;2.13;;;1.40;99.90;;;;;;5081839;28;20676;-73
2022/04/01 09:14:36;;;;;;;5.30;2.80;;;1.40;99.90;;;;;;5088766;28;20205;-71
2022/04/01 09:17:04;;;;;;;4.33;2.63;;;1.30;99.90;;;;;;5093860;28;20233;-70
2022/04/01 09:19:32;;;;;;;4.30;2.47;;;1.30;99.90;;;;;;5079901;28;20230;-72
2022/04/01 09:22:15;;;;;;;3.60;2.47;;;1.20;99.90;;;;;;5093425;28;20198;-72
2022/04/01 09:24:57;;;;;;;3.77;2.10;;;1.30;99.90;;;;;;5080268;28;20226;-72
2022/04/01 09:27:52;;;;;;;2.70;1.63;;;1.30;99.90;;;;;;5072757;28;20205;-72
2022/04/01 09:30:22;;;;;;;7.43;2.87;;;1.30;99.90;;;;;;5041930;28;20213;-70
2022/04/01 09:32:51;;;;;;;3.13;2.00;;;1.30;99.90;;;;;;5083017;28;20226;-71
2022/04/01 09:35:20;;;;;;;3.47;2.33;;;1.40;99.90;;;;;;5084804;28;20224;-71
2022/04/01 09:37:49;;;;;;;3.57;2.53;;;1.40;99.90;;;;;;5082073;28;20221;-69
2022/04/01 09:40:20;;;;;;;2.60;2.20;;;1.30;99.90;;;;;;5083369;28;20199;-70
2022/04/01 09:42:48;;;;;;;2.50;1.50;;;1.30;99.90;;;;;;5088246;28;20207;-71
2022/04/01 09:45:19;;;;;;;2.17;1.23;;;1.30;99.90;;;;;;5076715;28;20200;-70
2022/04/01 09:47:46;;;;;;;3.07;2.27;;;1.40;99.90;;;;;;5074352;28;20203;-71
2022/04/01 09:50:17;;;;;;;3.00;1.73;;;1.50;99.90;;;;;;5077334;28;20260;-70
2022/04/01 09:52:45;;;;;;;6.20;2.03;;;1.60;99.90;;;;;;5073014;28;20206;-71
2022/04/01 09:55:14;;;;;;;5.03;2.33;;;1.60;99.90;;;;;;5073478;28;20272;-70
2022/04/01 09:57:40;;;;;;;2.43;1.93;;;1.70;99.90;;;;;;5073672;28;20295;-68
2022/04/01 10:00:09;;;;;;;1.60;1.23;;;1.70;99.90;;;;;;5080249;28;20210;-69
2022/04/01 10:02:39;;;;;;;7.17;2.27;;;1.70;99.90;;;;;;5080398;28;20191;-69
2022/04/01 10:05:07;;;;;;;2.97;1.63;;;1.80;99.90;;;;;;5079868;28;20207;-73
2022/04/01 10:07:34;;;;;;;3.83;1.90;;;1.90;99.90;;;;;;5093594;28;20205;-80
2022/04/01 10:10:06;;;;;;;8.03;2.23;;;1.80;99.90;;;;;;5085883;28;20438;-77
2022/04/01 10:12:41;;;;;;;2.30;1.50;;;1.80;99.90;;;;;;5074665;28;20204;-78
2022/04/01 10:15:10;;;;;;;2.00;1.20;;;1.80;99.90;;;;;;5093541;28;20205;-77
2022/04/01 10:17:40;;;;;;;1.87;1.50;;;1.80;99.90;;;;;;5093062;28;20199;-69
2022/04/01 10:20:09;;;;;;;3.17;1.77;;;1.80;99.90;;;;;;5072604;28;20210;-78
2022/04/01 10:22:36;;;;;;;2.43;1.80;;;1.70;99.90;;;;;;5072579;28;20668;-71
2022/04/01 10:25:08;;;;;;;2.77;1.60;;;1.60;99.90;;;;;;5076051;28;20313;-80
2022/04/01 10:27:40;;;;;;;3.83;1.80;;;1.60;99.90;;;;;;5092839;28;20209;-74
2022/04/01 10:30:08;;;;;;;2.17;1.70;;;1.60;99.90;;;;;;5073353;28;20307;-77
2022/04/01 10:32:42;;;;;;;2.73;1.90;;;1.60;99.90;;;;;;5073576;28;20205;-77
2022/04/01 10:35:20;;;;;;;3.50;1.43;;;1.60;99.90;;;;;;5073302;28;20253;-76
2022/04/01 10:37:47;;;;;;;3.23;1.90;;;1.70;99.90;;;;;;5072610;28;20203;-74
2022/04/01 10:40:17;;;;;;;2.63;2.00;;;1.90;99.90;;;;;;5072628;28;20203;-76
2022/04/01 10:42:47;;;;;;;3.27;1.90;;;1.90;99.90;;;;;;5071878;28;20242;-76
2022/04/01 10:45:25;;;;;;;1.73;1.33;;;1.90;99.90;;;;;;5071401;28;20231;-77
2022/04/01 10:54:06;;;;;;;1.83;1.50;;;1.70;99.90;;;;;;5049769;28;20292;-71
2022/04/01 10:56:36;;;;;;;2.03;1.27;;;1.80;99.90;;;;;;5076084;28;20198;-72
2022/04/01 10:59:14;;;;;;;3.27;1.77;;;1.80;99.90;;;;;;5093294;28;20287;-72
2022/04/01 11:01:44;;;;;;;4.13;1.70;;;1.90;99.90;;;;;;5092463;28;20194;-72
2022/04/01 11:04:29;;;;;;;6.20;1.70;;;1.90;99.90;;;;;;5092595;28;20237;-72
2022/04/01 11:06:58;;;;;;;2.90;2.00;;;2.00;99.90;;;;;;5092961;28;20293;-72
2022/04/01 11:09:46;;;;;;;2.93;1.50;;;2.00;99.90;;;;;;5089151;28;20235;-72
2022/04/01 11:12:35;;;;;;;1.50;1.20;;;2.10;99.90;;;;;;5082610;28;20203;-72
2022/04/01 11:15:28;;;;;;;10.00;2.20;;;2.10;99.90;;;;;;5074994;28;20202;-72
2022/04/01 11:18:06;;;;;;;5.33;1.30;;;2.10;99.90;;;;;;5078363;28;20293;-72
2022/04/01 11:20:35;;;;;;;2.63;1.70;;;2.30;99.90;;;;;;5093588;28;20237;-72
2022/04/01 11:23:07;;;;;;;5.07;1.60;;;2.30;99.90;;;;;;5092870;28;20194;-73
2022/04/01 11:25:58;;;;;;;4.57;2.00;;;2.30;99.90;;;;;;5089478;28;20206;-73
2022/04/01 11:28:30;;;;;;;1.60;1.00;;;2.30;99.90;;;;;;5083806;28;20221;-73
2022/04/01 11:31:17;;;;;;;1.53;1.13;;;2.40;99.90;;;;;;5080803;28;20198;-73
2022/04/01 11:34:01;;;;;;;1.40;1.20;;;2.40;99.90;;;;;;5092291;28;20267;-73
2022/04/01 11:36:28;;;;;;;2.67;1.17;;;2.30;99.90;;;;;;5093080;28;20198;-73
2022/04/01 11:38:55;;;;;;;3.00;1.67;;;2.30;99.90;;;;;;5087824;28;20229;-73
2022/04/01 11:41:23;;;;;;;1.90;1.37;;;2.30;99.90;;;;;;5084827;28;20600;-73
2022/04/01 11:43:51;;;;;;;2.90;1.40;;;2.40;99.90;;;;;;5090232;28;20226;-73
2022/04/01 11:46:19;;;;;;;2.50;1.37;;;2.50;99.90;;;;;;5090986;28;20740;-73
2022/04/01 11:48:48;;;;;;;4.83;1.47;;;2.50;99.90;;;;;;5091240;28;20226;-73
2022/04/01 11:51:17;;;;;;;2.73;1.40;;;2.50;99.90;;;;;;5092515;28;20202;-71
2022/04/01 11:53:48;;;;;;;1.90;1.30;;;2.50;99.90;;;;;;5092874;28;20586;-72
2022/04/01 11:56:17;;;;;;;2.03;1.10;;;2.60;99.90;;;;;;5092985;28;20256;-72
2022/04/01 11:58:53;;;;;;;1.60;1.20;;;2.60;99.90;;;;;;5092676;28;20229;-72
2022/04/01 12:01:22;;;;;;;2.60;1.23;;;2.50;99.90;;;;;;5093035;28;20224;-72
2022/04/01 12:03:49;;;;;;;4.23;1.70;;;2.50;99.90;;;;;;5091360;28;20237;-72
2022/04/01 12:09:03;;;;;;;1.33;1.00;;;2.70;99.90;;;;;;5070536;28;20301;-72
2022/04/01 12:11:30;;;;;;;2.30;1.30;;;2.70;99.90;;;;;;5071652;28;20670;-72
2022/04/01 12:13:57;;;;;;;2.60;1.30;;;2.70;99.90;;;;;;5072737;28;20243;-70
2022/04/01 12:16:25;;;;;;;2.73;0.90;;;2.50;99.90;;;;;;5095664;28;20206;-72
2022/04/01 12:18:52;;;;;;;2.17;1.30;;;2.50;99.90;;;;;;5089287;28;20223;-70
2022/04/01 12:21:20;;;;;;;2.73;1.10;;;2.60;99.90;;;;;;5078911;28;20203;-70
2022/04/01 12:23:49;;;;;;;1.80;1.10;;;2.70;99.90;;;;;;5076659;28;20231;-76
2022/04/01 12:26:16;;;;;;;2.00;1.13;;;2.80;99.90;;;;;;5080852;28;20202;-71
2022/04/01 12:28:44;;;;;;;2.47;1.10;;;2.80;99.90;;;;;;5082875;28;20226;-71
2022/04/01 12:31:19;;;;;;;2.03;1.30;;;2.90;99.90;;;;;;5075280;28;20206;-71
2022/04/01 12:33:49;;;;;;;2.23;1.37;;;3.00;99.90;;;;;;5084473;28;20202;-71
2022/04/01 12:36:16;;;;;;;2.47;1.20;;;3.00;99.90;;;;;;5094915;28;20381;-72
2022/04/01 12:38:44;;;;;;;2.03;1.13;;;3.00;99.90;;;;;;5093487;28;20252;-73
2022/04/01 12:41:16;;;;;;;2.50;1.60;;;2.90;99.90;;;;;;5095335;28;20202;-73
2022/04/01 12:43:44;;;;;;;1.40;1.17;;;2.80;99.90;;;;;;5091129;28;20210;-73
2022/04/01 12:46:13;;;;;;;3.83;1.37;;;2.90;99.90;;;;;;5079993;28;20194;-73
2022/04/01 12:48:43;;;;;;;1.83;1.03;;;2.80;99.90;;;;;;5087647;28;20231;-75
2022/04/01 12:51:21;;;;;;;2.80;1.30;;;2.80;99.90;;;;;;5092624;28;20199;-80
2022/04/01 12:54:02;;;;;;;2.50;1.37;;;2.70;99.90;;;;;;5093395;28;20286;-78
2022/04/01 12:56:31;;;;;;;1.53;1.10;;;3.00;99.90;;;;;;5093347;28;20647;-70
2022/04/01 12:58:59;;;;;;;2.90;1.50;;;3.10;99.90;;;;;;5094538;28;20277;-80
2022/04/01 13:01:27;;;;;;;1.27;1.00;;;3.20;99.90;;;;;;5094476;28;20210;-73
2022/04/01 13:03:56;;;;;;;2.63;1.60;;;3.30;99.90;;;;;;5096348;28;20939;-71
2022/04/01 13:06:25;;;;;;;2.77;1.37;;;3.30;99.90;;;;;;5114559;28;20292;-71
2022/04/01 13:09:00;;;;;;;2.40;1.33;;;3.30;99.90;;;;;;5103273;28;20622;-71
2022/04/01 13:11:39;;;;;;;3.73;0.93;;;3.30;99.90;;;;;;5074642;28;20245;-71
2022/04/01 13:14:17;;;;;;;3.13;1.40;;;3.20;99.90;;;;;;5089145;28;20211;-71
2022/04/01 13:16:44;;;;;;;3.33;1.27;;;3.00;99.90;;;;;;5073504;28;20207;-69
2022/04/01 13:19:19;;;;;;;5.23;1.47;;;2.90;99.90;;;;;;5074041;28;20219;-73
2022/04/01 13:21:47;;;;;;;3.93;1.37;;;3.00;99.90;;;;;;5076349;28;20299;-69
2022/04/01 13:24:20;;;;;;;7.13;1.60;;;3.00;99.90;;;;;;5074327;28;20580;-75
2022/04/01 13:26:46;;;;;;;1.60;1.23;;;3.00;99.90;;;;;;5072124;28;20293;-70